createdAt,value
2023-04-03T00:00:39.768Z,96.50
2023-04-03T00:03:06.587Z,98.00
2023-04-03T00:05:33.352Z,98.90
2023-04-03T00:08:00.334Z,98.80
2023-04-03T00:10:26.935Z,98.90
2023-04-03T00:12:53.572Z,99.00
2023-04-03T00:15:20.297Z,98.70
2023-04-03T00:17:47.027Z,99.00
2023-04-03T00:20:13.866Z,98.40
2023-04-03T00:22:40.736Z,98.40
2023-04-03T00:25:07.993Z,98.70
2023-04-03T00:27:36.544Z,99.00
2023-04-03T00:30:04.080Z,99.30
2023-04-03T00:32:30.972Z,99.20
2023-04-03T00:34:57.608Z,99.60
2023-04-03T00:37:24.246Z,99.90
2023-04-03T00:39:51.127Z,99.90
2023-04-03T00:42:17.913Z,99.90
2023-04-03T00:44:44.842Z,99.90
2023-04-03T00:47:17.522Z,99.90
2023-04-03T00:49:45.382Z,99.90
2023-04-03T00:52:17.292Z,99.90
2023-04-03T00:54:46.288Z,99.90
2023-04-03T00:57:13.069Z,99.90
2023-04-03T00:59:45.033Z,99.90
2023-04-03T01:02:11.695Z,99.90
2023-04-03T01:04:40.861Z,99.90
2023-04-03T01:07:17.121Z,99.70
2023-04-03T01:09:45.525Z,98.90
2023-04-03T01:12:27.310Z,98.90
2023-04-03T01:14:57.335Z,99.00
2023-04-03T01:17:36.825Z,99.10
2023-04-03T01:20:12.675Z,98.60
2023-04-03T01:23:06.725Z,98.80
2023-04-03T01:25:34.853Z,98.60
2023-04-03T01:28:01.931Z,98.80
2023-04-03T01:30:35.826Z,98.70
2023-04-03T01:33:02.791Z,99.50
2023-04-03T01:35:29.685Z,99.90
2023-04-03T01:37:56.309Z,99.90
2023-04-03T01:40:22.901Z,99.90
2023-04-03T01:42:49.499Z,99.40
2023-04-03T01:45:16.235Z,99.50
2023-04-03T01:47:42.935Z,99.90
2023-04-03T01:50:10.085Z,99.90
2023-04-03T01:52:36.750Z,99.90
2023-04-03T01:55:03.586Z,99.90
2023-04-03T01:57:30.242Z,99.90
2023-04-03T01:59:56.848Z,99.90
2023-04-03T02:02:23.505Z,99.90
2023-04-03T02:04:50.155Z,99.90
2023-04-03T02:07:16.784Z,99.90
2023-04-03T02:09:43.362Z,99.90
2023-04-03T02:12:09.956Z,99.90
2023-04-03T02:14:36.544Z,99.70
2023-04-03T02:17:06.093Z,99.50
2023-04-03T02:19:32.851Z,99.40
2023-04-03T02:21:59.439Z,99.30
2023-04-03T02:24:26.161Z,98.90
2023-04-03T02:26:52.785Z,98.80
2023-04-03T02:29:19.593Z,98.90
2023-04-03T02:31:46.352Z,99.00
2023-04-03T02:34:13.049Z,99.50
2023-04-03T02:36:39.655Z,99.90
2023-04-03T02:39:06.463Z,99.90
2023-04-03T02:41:36.112Z,99.90
2023-04-03T02:44:04.428Z,99.90
2023-04-03T02:46:31.223Z,99.90
2023-04-03T02:48:57.968Z,99.90
2023-04-03T02:51:25.247Z,99.90
2023-04-03T02:53:51.912Z,99.90
2023-04-03T02:56:20.279Z,99.90
2023-04-03T02:58:47.037Z,99.90
2023-04-03T03:01:13.699Z,99.90
2023-04-03T03:03:40.390Z,99.90
2023-04-03T03:06:16.285Z,99.90
2023-04-03T03:08:43.249Z,99.90
2023-04-03T03:11:10.618Z,99.90
2023-04-03T03:13:37.384Z,99.90
2023-04-03T03:16:04.767Z,99.90
2023-04-03T03:18:31.710Z,99.90
2023-04-03T03:21:00.308Z,99.90
2023-04-03T03:23:28.438Z,99.90
2023-04-03T03:26:01.060Z,99.90
2023-04-03T03:28:27.687Z,99.90
2023-04-03T03:30:54.493Z,99.90
2023-04-03T03:33:21.097Z,99.90
2023-04-03T03:35:47.686Z,99.90
2023-04-03T03:38:14.350Z,99.90
2023-04-03T03:40:41.010Z,99.90
2023-04-03T03:43:08.024Z,99.90
2023-04-03T03:45:35.177Z,99.90
2023-04-03T03:48:02.883Z,99.90
2023-04-03T03:50:29.497Z,99.90
2023-04-03T03:52:56.295Z,99.90
2023-04-03T03:55:22.910Z,99.90
2023-04-03T03:57:49.514Z,99.90
2023-04-03T04:00:17.037Z,99.90
2023-04-03T04:02:44.595Z,99.90
2023-04-03T04:05:11.344Z,99.90
2023-04-03T04:07:37.975Z,99.90
2023-04-03T04:10:05.676Z,99.90
2023-04-03T04:12:32.304Z,99.90
2023-04-03T04:14:59.097Z,99.90
2023-04-03T04:17:25.696Z,99.90
2023-04-03T04:19:52.311Z,99.90
2023-04-03T04:22:19.071Z,99.90
2023-04-03T04:24:45.664Z,99.90
2023-04-03T04:27:12.267Z,99.90
2023-04-03T04:29:39.029Z,99.90
2023-04-03T04:32:05.739Z,99.90
2023-04-03T04:34:32.587Z,99.90
2023-04-03T04:36:59.364Z,99.90
2023-04-03T04:39:26.406Z,99.90
2023-04-03T04:41:53.149Z,99.90
2023-04-03T04:44:19.861Z,99.90
2023-04-03T04:46:46.551Z,99.90
2023-04-03T04:49:13.154Z,99.90
2023-04-03T04:51:51.114Z,99.90
2023-04-03T04:54:18.993Z,99.90
2023-04-03T04:56:45.824Z,99.90
2023-04-03T04:59:12.457Z,99.90
2023-04-03T05:01:39.384Z,99.90
2023-04-03T05:04:06.068Z,99.90
2023-04-03T05:06:32.870Z,99.90
2023-04-03T05:09:00.241Z,99.90
2023-04-03T05:11:27.116Z,99.90
2023-04-03T05:13:53.867Z,99.90
2023-04-03T05:16:20.614Z,99.90
2023-04-03T05:18:47.264Z,99.90
2023-04-03T05:21:13.871Z,99.90
2023-04-03T05:23:40.502Z,99.90
2023-04-03T05:26:07.424Z,99.90
2023-04-03T05:28:34.084Z,99.90
2023-04-03T05:31:00.827Z,99.90
2023-04-03T05:33:28.045Z,99.90
2023-04-03T05:35:55.435Z,99.90
2023-04-03T05:38:22.317Z,99.90
2023-04-03T05:40:49.044Z,99.90
2023-04-03T05:43:15.807Z,99.90
2023-04-03T05:45:45.342Z,99.90
2023-04-03T05:48:13.789Z,99.90
2023-04-03T05:50:42.464Z,99.90
2023-04-03T05:53:17.362Z,99.90
2023-04-03T05:55:44.249Z,99.90
2023-04-03T05:58:11.716Z,99.90
2023-04-03T06:00:38.581Z,99.90
2023-04-03T06:03:05.356Z,99.90
2023-04-03T06:05:32.160Z,99.90
2023-04-03T06:07:58.800Z,99.90
2023-04-03T06:10:31.444Z,99.90
2023-04-03T06:12:58.111Z,99.90
2023-04-03T06:15:25.106Z,99.90
2023-04-03T06:17:52.262Z,99.90
2023-04-03T06:20:18.931Z,99.90
2023-04-03T06:22:45.780Z,99.90
2023-04-03T06:25:15.602Z,99.90
2023-04-03T06:27:42.248Z,99.90
2023-04-03T06:30:09.353Z,99.40
2023-04-03T06:32:35.972Z,97.90
2023-04-03T06:35:02.600Z,96.90
2023-04-03T06:37:30.617Z,95.40
2023-04-03T06:39:57.924Z,94.90
2023-04-03T06:42:25.067Z,94.70
2023-04-03T06:44:51.643Z,94.80
2023-04-03T06:47:19.336Z,94.80
2023-04-03T06:49:46.203Z,94.70
2023-04-03T06:52:14.074Z,93.70
2023-04-03T06:54:41.577Z,93.70
2023-04-03T06:57:08.818Z,92.70
2023-04-03T06:59:37.361Z,91.80
2023-04-03T07:02:04.766Z,92.10
2023-04-03T07:04:32.584Z,91.30
2023-04-03T07:06:59.264Z,91.00
2023-04-03T07:09:26.149Z,90.90
2023-04-03T07:11:52.801Z,90.10
2023-04-03T07:14:19.403Z,88.20
2023-04-03T07:16:46.088Z,88.20
2023-04-03T07:19:12.847Z,89.40
2023-04-03T07:21:39.870Z,86.70
2023-04-03T07:24:07.130Z,83.00
2023-04-03T07:26:35.483Z,81.80
2023-04-03T07:29:02.414Z,78.40
2023-04-03T07:31:30.122Z,76.70
2023-04-03T07:33:56.828Z,76.80
2023-04-03T07:36:23.849Z,74.40
2023-04-03T07:38:50.644Z,71.10
2023-04-03T07:41:19.006Z,69.40
2023-04-03T07:43:46.164Z,67.30
2023-04-03T07:46:13.099Z,66.20
2023-04-03T07:48:39.866Z,64.10
2023-04-03T07:51:06.611Z,63.70
2023-04-03T07:53:34.070Z,63.60
2023-04-03T07:56:01.030Z,62.60
2023-04-03T07:58:27.795Z,62.90
2023-04-03T08:00:54.613Z,63.40
2023-04-03T08:03:22.015Z,61.50
2023-04-03T08:05:50.350Z,61.60
2023-04-03T08:08:21.271Z,61.60
2023-04-03T08:10:55.828Z,60.90
2023-04-03T08:13:23.118Z,60.10
2023-04-03T08:15:49.873Z,60.20
2023-04-03T08:18:17.023Z,58.60
2023-04-03T08:20:44.053Z,57.20
2023-04-03T08:23:11.579Z,57.50
2023-04-03T08:33:04.498Z,58.60
2023-04-03T08:35:31.404Z,59.50
2023-04-03T08:37:58.062Z,58.80
2023-04-03T08:40:25.476Z,55.70
2023-04-03T08:43:30.507Z,54.40
2023-04-03T08:46:01.695Z,53.90
2023-04-03T08:48:34.047Z,54.40
2023-04-03T08:51:10.867Z,54.80
2023-04-03T08:53:44.163Z,53.00
2023-04-03T08:56:12.382Z,53.10
2023-04-03T08:58:57.033Z,50.60
2023-04-03T09:01:37.234Z,51.30
2023-04-03T09:04:11.256Z,50.10
2023-04-03T09:06:40.274Z,50.00
2023-04-03T09:09:24.049Z,49.30
2023-04-03T09:12:32.991Z,48.40
2023-04-03T09:15:09.335Z,51.00
2023-04-03T09:17:54.300Z,48.90
2023-04-03T09:20:46.913Z,48.90
2023-04-03T09:23:20.420Z,45.00
2023-04-03T09:25:47.340Z,44.70
2023-04-03T09:28:14.195Z,45.80
2023-04-03T09:30:40.944Z,46.00
2023-04-03T09:33:08.472Z,47.10
2023-04-03T09:35:47.121Z,47.00
2023-04-03T09:38:15.307Z,46.00
2023-04-03T09:40:48.057Z,43.00
2023-04-03T09:43:30.223Z,42.90
2023-04-03T09:46:17.584Z,45.10
2023-04-03T09:49:08.744Z,45.70
2023-04-03T09:51:37.316Z,44.70
2023-04-03T09:54:40.774Z,43.60
2023-04-03T09:57:14.024Z,45.10
2023-04-03T09:59:45.709Z,42.60
2023-04-03T10:02:12.330Z,41.50
2023-04-03T10:04:43.264Z,41.90
2023-04-03T10:07:34.363Z,40.50
2023-04-03T10:10:16.501Z,40.90
2023-04-03T10:12:44.183Z,40.40
2023-04-03T10:15:16.859Z,38.80
2023-04-03T10:18:04.500Z,38.90
2023-04-03T10:20:44.318Z,40.40
2023-04-03T10:23:29.440Z,39.50
2023-04-03T10:26:14.710Z,39.00
2023-04-03T10:29:10.071Z,39.60
2023-04-03T10:32:04.431Z,36.90
2023-04-03T10:34:36.456Z,38.00
2023-04-03T10:37:24.993Z,37.70
2023-04-03T10:40:03.667Z,39.30
2023-04-03T10:42:42.228Z,38.00
2023-04-03T10:45:25.567Z,36.60
2023-04-03T10:48:17.540Z,38.40
2023-04-03T10:50:58.837Z,38.90
2023-04-03T10:53:48.201Z,37.70
2023-04-03T10:56:33.555Z,37.30
2023-04-03T10:59:19.735Z,39.40
2023-04-03T11:02:00.373Z,37.80
2023-04-03T11:04:30.667Z,37.10
2023-04-03T11:07:25.666Z,35.80
2023-04-03T11:09:57.857Z,35.10
2023-04-03T11:12:36.983Z,36.50
2023-04-03T11:15:05.656Z,33.80
2023-04-03T11:17:40.796Z,35.20
2023-04-03T11:20:21.974Z,36.80
2023-04-03T11:22:54.143Z,34.60
2023-04-03T11:25:24.280Z,33.40
2023-04-03T11:27:53.710Z,34.00
2023-04-03T11:30:27.084Z,34.70
2023-04-03T11:33:16.382Z,35.30
2023-04-03T11:35:49.631Z,34.10
2023-04-03T11:38:28.014Z,31.70
2023-04-03T11:40:56.258Z,31.60
2023-04-03T11:43:27.859Z,32.80
2023-04-03T11:46:00.314Z,30.60
2023-04-03T11:48:30.385Z,31.10
2023-04-03T11:51:23.632Z,31.00
2023-04-03T11:53:50.345Z,30.50
2023-04-03T11:56:26.725Z,31.10
2023-04-03T11:59:11.604Z,32.30
2023-04-03T12:01:56.016Z,32.00
2023-04-03T12:04:27.595Z,31.50
2023-04-03T12:07:18.483Z,31.30
2023-04-03T12:09:45.286Z,31.60
2023-04-03T12:12:33.868Z,31.20
2023-04-03T12:15:20.400Z,31.50
2023-04-03T12:17:47.975Z,31.80
2023-04-03T12:20:51.748Z,30.50
2023-04-03T12:23:25.695Z,34.10
2023-04-03T12:25:52.796Z,33.00
2023-04-03T12:28:19.482Z,32.50
2023-04-03T12:30:47.329Z,33.30
2023-04-03T12:33:37.770Z,30.30
2023-04-03T12:36:12.536Z,32.70
2023-04-03T12:39:23.683Z,31.80
2023-04-03T12:41:59.161Z,33.30
2023-04-03T12:44:54.744Z,32.30
2023-04-03T12:47:28.205Z,34.10
2023-04-03T12:49:56.769Z,34.10
2023-04-03T12:52:44.966Z,36.60
2023-04-03T12:55:21.124Z,35.10
2023-04-03T12:57:48.359Z,36.30
2023-04-03T13:00:34.349Z,37.60
2023-04-03T13:03:04.398Z,36.00
2023-04-03T13:05:32.693Z,37.00
2023-04-03T13:08:04.017Z,38.90
2023-04-03T13:10:33.644Z,37.30
2023-04-03T13:13:10.006Z,38.80
2023-04-03T13:15:46.292Z,39.00
2023-04-03T13:18:33.966Z,39.20
2023-04-03T13:21:17.720Z,39.90
2023-04-03T13:23:49.241Z,39.50
2023-04-03T13:26:19.518Z,41.60
2023-04-03T13:28:47.178Z,41.40
2023-04-03T13:31:15.019Z,40.50
2023-04-03T13:34:11.877Z,41.70
2023-04-03T13:36:46.206Z,46.20
2023-04-03T13:39:16.271Z,40.80
2023-04-03T13:41:51.720Z,41.30
2023-04-03T13:44:24.300Z,42.60
2023-04-03T13:46:57.128Z,41.30
2023-04-03T13:49:38.897Z,43.00
2023-04-03T13:52:32.108Z,42.60
2023-04-03T13:55:24.805Z,45.20
2023-04-03T13:58:21.077Z,44.30
2023-04-03T14:01:01.569Z,44.20
2023-04-03T14:03:54.657Z,47.60
2023-04-03T14:06:21.733Z,47.00
2023-04-03T14:08:49.853Z,46.00
2023-04-03T14:11:21.721Z,47.70
2023-04-03T14:13:49.422Z,46.50
2023-04-03T14:16:18.927Z,45.80
2023-04-03T14:18:47.063Z,44.00
2023-04-03T14:21:15.787Z,44.90
2023-04-03T14:23:42.719Z,46.10
2023-04-03T14:26:22.992Z,46.00
2023-04-03T14:28:53.219Z,45.60
2023-04-03T14:31:21.769Z,46.90
2023-04-03T14:33:49.133Z,45.80
2023-04-03T14:36:27.699Z,48.00
2023-04-03T14:38:55.085Z,47.20
2023-04-03T14:41:24.411Z,46.80
2023-04-03T14:43:52.435Z,45.50
2023-04-03T14:46:54.398Z,45.70
2023-04-03T14:49:26.344Z,46.90
2023-04-03T14:51:54.155Z,48.00
2023-04-03T14:54:26.266Z,47.60
2023-04-03T14:56:53.990Z,47.50
2023-04-03T14:59:22.389Z,47.80
2023-04-03T15:01:49.303Z,47.30
2023-04-03T15:04:19.806Z,48.00
2023-04-03T15:06:48.439Z,48.30
2023-04-03T15:09:35.555Z,46.00
2023-04-03T15:12:02.154Z,51.30
2023-04-03T15:14:36.646Z,47.80
2023-04-03T15:17:06.718Z,47.50
2023-04-03T15:19:42.943Z,46.90
2023-04-03T15:22:19.948Z,46.40
2023-04-03T15:24:47.016Z,48.70
2023-04-03T15:27:14.646Z,47.90
2023-04-03T15:29:43.762Z,47.60
2023-04-03T15:32:11.533Z,49.60
2023-04-03T15:34:39.229Z,49.40
2023-04-03T15:37:07.136Z,47.10
2023-04-03T15:39:33.800Z,47.60
2023-04-03T15:42:06.718Z,48.80
2023-04-03T15:44:36.485Z,48.00
2023-04-03T15:47:03.771Z,48.90
2023-04-03T15:49:31.740Z,48.00
2023-04-03T15:51:58.337Z,47.70
2023-04-03T15:54:26.207Z,47.60
2023-04-03T15:56:54.378Z,48.60
2023-04-03T15:59:21.223Z,48.50
2023-04-03T17:30:30.284Z,48.30
2023-04-03T17:32:56.946Z,52.70
2023-04-03T17:35:23.871Z,53.20
2023-04-03T17:37:50.712Z,53.80
2023-04-03T17:40:18.656Z,53.50
2023-04-03T17:42:45.525Z,53.50
2023-04-03T17:45:12.167Z,54.10
2023-04-03T17:47:38.936Z,52.60
2023-04-03T17:50:06.727Z,53.80
2023-04-03T17:52:33.784Z,53.60
2023-04-03T17:55:00.421Z,54.00
2023-04-03T17:57:27.186Z,53.40
2023-04-03T17:59:54.254Z,54.40
2023-04-03T18:02:21.121Z,55.60
2023-04-03T18:04:47.752Z,55.00
2023-04-03T18:07:14.541Z,55.10
2023-04-03T18:09:42.016Z,56.00
2023-04-03T18:12:09.815Z,56.60
2023-04-03T18:14:38.013Z,57.70
2023-04-03T18:17:04.746Z,59.00
2023-04-03T18:19:31.992Z,60.70
2023-04-03T18:22:03.039Z,60.20
2023-04-03T18:24:34.050Z,63.70
2023-04-03T18:27:06.114Z,59.80
2023-04-03T18:29:34.907Z,60.50
2023-04-03T18:32:04.459Z,59.20
2023-04-03T18:34:32.252Z,57.90
2023-04-03T18:36:59.937Z,57.80
2023-04-03T18:39:27.079Z,57.00
2023-04-03T18:41:54.384Z,58.40
2023-04-03T18:44:24.858Z,57.90
2023-04-03T18:46:53.808Z,59.00
2023-04-03T18:49:20.687Z,57.50
2023-04-03T18:51:49.813Z,59.00
2023-04-03T18:54:16.505Z,59.70
2023-04-03T18:56:43.185Z,60.40
2023-04-03T18:59:10.138Z,59.30
2023-04-03T19:01:37.444Z,62.10
2023-04-03T19:04:04.306Z,60.70
2023-04-03T19:06:33.059Z,59.40
2023-04-03T19:08:59.806Z,60.80
2023-04-03T19:11:28.455Z,63.40
2023-04-03T19:14:04.292Z,62.60
2023-04-03T19:16:41.829Z,62.10
2023-04-03T19:19:08.653Z,66.60
2023-04-03T19:21:38.446Z,66.60
2023-04-03T19:24:05.388Z,68.10
2023-04-03T19:26:34.260Z,67.50
2023-04-03T19:29:01.411Z,69.30
2023-04-03T19:31:28.133Z,70.10
2023-04-03T19:33:55.210Z,73.40
2023-04-03T19:36:21.923Z,69.30
2023-04-03T19:38:48.567Z,71.40
2023-04-03T19:41:19.178Z,73.70
2023-04-03T19:43:47.074Z,75.00
2023-04-03T19:46:13.737Z,76.50
2023-04-03T19:48:40.397Z,78.50
2023-04-03T19:51:08.281Z,77.00
2023-04-03T19:53:35.019Z,78.10
2023-04-03T19:56:01.762Z,79.60
2023-04-03T19:58:29.677Z,81.30
2023-04-03T20:00:59.907Z,82.00
2023-04-03T20:03:27.116Z,83.20
2023-04-03T20:05:57.772Z,84.00
2023-04-03T20:08:28.341Z,84.90
2023-04-03T20:10:56.017Z,83.70
2023-04-03T20:13:22.798Z,84.20
2023-04-03T20:15:49.410Z,84.80
2023-04-03T20:18:20.956Z,86.30
2023-04-03T20:20:55.468Z,87.10
2023-04-03T20:23:22.483Z,88.80
2023-04-03T20:26:01.968Z,90.10
2023-04-03T20:28:36.302Z,90.90
2023-04-03T20:31:04.742Z,91.80
2023-04-03T20:33:31.653Z,92.80
2023-04-03T20:36:01.517Z,93.60
2023-04-03T20:38:28.525Z,93.80
2023-04-03T20:40:55.519Z,94.00
2023-04-03T20:43:23.249Z,93.90
2023-04-03T20:45:50.846Z,94.60
2023-04-03T20:48:18.336Z,94.70
2023-04-03T20:50:46.519Z,94.80
2023-04-03T20:53:14.773Z,94.80
2023-04-03T20:55:42.202Z,95.00
2023-04-03T20:58:08.931Z,95.60
2023-04-03T21:00:37.851Z,96.10
2023-04-03T21:03:05.546Z,95.80
2023-04-03T21:05:34.738Z,96.10
2023-04-03T21:08:39.976Z,96.70
2023-04-03T21:11:44.430Z,97.00
2023-04-03T21:14:48.936Z,96.90
2023-04-03T21:17:15.477Z,96.50
2023-04-03T21:19:48.508Z,96.80
2023-04-03T21:22:16.111Z,98.10
2023-04-03T21:24:44.057Z,97.80
2023-04-03T21:27:10.861Z,97.50
2023-04-03T21:29:40.550Z,97.70
2023-04-03T21:32:07.702Z,97.50
2023-04-03T21:34:34.926Z,97.40
2023-04-03T21:37:04.584Z,97.40
2023-04-03T21:39:31.937Z,97.70
2023-04-03T21:41:58.841Z,98.40
2023-04-03T21:44:28.230Z,98.60
2023-04-03T21:46:55.332Z,98.60
2023-04-03T21:49:23.242Z,99.10
2023-04-03T21:51:51.731Z,98.50
2023-04-03T21:54:19.042Z,99.20
2023-04-03T21:56:48.277Z,98.50
2023-04-03T21:59:15.831Z,98.60
2023-04-03T22:01:43.413Z,99.50
2023-04-03T22:04:10.620Z,99.90
2023-04-03T22:06:37.914Z,99.90
2023-04-03T22:09:04.628Z,99.90
2023-04-03T22:11:31.333Z,99.90
2023-04-03T22:13:58.078Z,99.90
2023-04-03T22:16:26.542Z,99.90
2023-04-03T22:18:53.356Z,99.90
2023-04-03T22:21:21.567Z,99.90
2023-04-03T22:23:48.158Z,99.90
2023-04-03T22:26:14.897Z,99.90
2023-04-03T22:28:43.968Z,99.90
2023-04-03T22:31:14.288Z,99.90
2023-04-03T22:33:42.489Z,99.90
2023-04-03T22:36:11.018Z,99.90
2023-04-03T22:38:38.862Z,99.90
2023-04-03T22:41:07.251Z,99.90
2023-04-03T22:43:36.180Z,99.90
2023-04-03T22:46:04.774Z,99.90
2023-04-03T22:48:31.836Z,99.90
2023-04-03T22:50:59.995Z,99.90
2023-04-03T22:53:29.549Z,99.90
2023-04-03T22:56:01.086Z,99.90
2023-04-03T22:58:28.857Z,99.90
2023-04-03T23:01:11.703Z,99.90
2023-04-03T23:03:40.239Z,99.90
2023-04-03T23:06:08.310Z,99.90
2023-04-03T23:08:37.748Z,99.90
2023-04-03T23:11:06.872Z,99.90
2023-04-03T23:13:33.580Z,99.90
2023-04-03T23:16:01.504Z,99.90
2023-04-03T23:18:29.574Z,99.90
2023-04-03T23:20:58.347Z,99.90
2023-04-03T23:23:25.438Z,99.90
2023-04-03T23:26:00.327Z,99.90
2023-04-03T23:28:27.892Z,99.90
2023-04-03T23:31:07.026Z,99.90
2023-04-03T23:33:34.131Z,99.90
2023-04-03T23:36:07.887Z,99.90
2023-04-03T23:38:35.022Z,99.90
2023-04-03T23:41:02.127Z,99.90
2023-04-03T23:43:28.910Z,99.90
2023-04-03T23:45:55.551Z,99.90
2023-04-03T23:48:22.219Z,99.90
2023-04-03T23:50:48.832Z,99.90
2023-04-03T23:53:15.412Z,99.90
2023-04-03T23:55:42.185Z,99.90
2023-04-03T23:58:09.136Z,99.90
